Time;durP1;ratioP1;P1;durP2;ratioP2;P2;SDS_P1;SDS_P2;PMS_P1;PMS_P2;Temp;Humidity;BMP_temperature;BMP_pressure;BME280_temperature;BME280_humidity;BME280_pressure;Samples;Min_cycle;Max_cycle;Signal;HPM_P1;HPM_P2
2024/01/31 00:02:06;;;;;;;36.38;21.10;;;2.50;99.90;;;;;;5092449;28;20442;-72
2024/01/31 00:04:32;;;;;;;33.22;21.00;;;2.50;99.90;;;;;;5094923;28;20456;-71
2024/01/31 00:06:58;;;;;;;36.17;20.52;;;2.40;99.90;;;;;;5094543;28;20052;-70
2024/01/31 00:09:23;;;;;;;36.80;21.48;;;2.40;99.90;;;;;;5093898;28;20024;-71
2024/01/31 00:11:49;;;;;;;37.55;20.63;;;2.40;99.90;;;;;;5094347;28;20028;-71
2024/01/31 00:14:16;;;;;;;38.10;21.80;;;2.40;99.90;;;;;;5093799;28;20038;-71
2024/01/31 00:16:43;;;;;;;35.95;22.30;;;2.40;99.90;;;;;;5091589;28;20034;-70
2024/01/31 00:19:08;;;;;;;36.55;21.48;;;2.40;99.90;;;;;;5093745;28;20020;-70
2024/01/31 00:21:34;;;;;;;36.53;21.98;;;2.40;99.90;;;;;;5093695;28;20310;-71
2024/01/31 00:23:59;;;;;;;39.20;22.00;;;2.40;99.90;;;;;;5102569;28;20130;-70
2024/01/31 00:26:25;;;;;;;38.10;21.13;;;2.40;99.90;;;;;;5113954;28;20035;-71
2024/01/31 00:28:51;;;;;;;35.70;21.67;;;2.40;99.90;;;;;;5113986;28;20058;-70
2024/01/31 00:31:17;;;;;;;40.95;21.42;;;2.30;99.90;;;;;;5113856;28;20028;-71
2024/01/31 00:33:43;;;;;;;37.33;21.40;;;2.30;99.90;;;;;;5114252;28;20020;-70
2024/01/31 00:36:09;;;;;;;36.45;21.77;;;2.30;99.90;;;;;;5113608;28;20030;-71
2024/01/31 00:38:34;;;;;;;36.55;21.67;;;2.30;99.90;;;;;;5114596;28;20027;-71
2024/01/31 00:41:00;;;;;;;37.50;23.38;;;2.30;99.90;;;;;;5113615;28;20031;-71
2024/01/31 00:43:26;;;;;;;41.53;23.58;;;2.30;99.90;;;;;;5113301;28;20722;-71
2024/01/31 00:45:51;;;;;;;40.67;23.02;;;2.30;99.90;;;;;;5114075;28;20381;-71
2024/01/31 00:48:17;;;;;;;39.55;24.80;;;2.30;99.90;;;;;;5113471;28;20027;-70
2024/01/31 00:50:43;;;;;;;41.95;25.45;;;2.30;99.90;;;;;;5113964;28;20020;-70
2024/01/31 00:53:08;;;;;;;39.00;23.77;;;2.30;99.90;;;;;;5113793;28;20405;-71
2024/01/31 00:55:34;;;;;;;40.95;23.60;;;2.20;99.90;;;;;;5113803;28;20039;-71
2024/01/31 00:58:00;;;;;;;38.67;24.38;;;2.20;99.90;;;;;;5113700;28;20035;-71
2024/01/31 01:00:26;;;;;;;38.80;24.02;;;2.20;99.90;;;;;;5113245;28;20030;-70
2024/01/31 01:02:53;;;;;;;38.85;24.25;;;2.20;99.90;;;;;;5113103;28;20519;-70
2024/01/31 01:05:20;;;;;;;40.63;24.08;;;2.10;99.90;;;;;;5112990;28;20023;-70
2024/01/31 01:07:45;;;;;;;41.60;24.63;;;2.10;99.90;;;;;;5113358;28;20019;-71
2024/01/31 01:10:15;;;;;;;40.63;24.38;;;2.10;99.90;;;;;;5111715;28;20031;-70
2024/01/31 01:12:42;;;;;;;38.80;23.63;;;2.00;99.90;;;;;;5112243;28;20035;-70
2024/01/31 01:15:08;;;;;;;42.25;24.88;;;2.00;99.90;;;;;;5113410;28;20050;-71
2024/01/31 01:17:35;;;;;;;43.83;24.63;;;1.90;99.90;;;;;;5111919;28;20020;-71
2024/01/31 01:20:00;;;;;;;45.08;25.73;;;2.00;99.90;;;;;;5113391;28;20046;-70
2024/01/31 01:22:26;;;;;;;42.13;25.15;;;1.90;99.90;;;;;;5112519;28;20032;-71
2024/01/31 01:24:52;;;;;;;45.58;25.70;;;1.90;99.90;;;;;;5113208;28;20471;-70
2024/01/31 01:27:18;;;;;;;44.40;26.02;;;1.90;99.90;;;;;;5110467;28;20483;-70
2024/01/31 01:29:44;;;;;;;42.33;25.70;;;1.90;99.90;;;;;;5112907;28;20016;-70
2024/01/31 01:32:10;;;;;;;44.05;26.38;;;1.90;99.90;;;;;;5113078;28;20498;-71
2024/01/31 01:34:40;;;;;;;45.33;26.85;;;1.80;99.90;;;;;;5112901;28;20024;-71
2024/01/31 01:37:06;;;;;;;42.80;25.23;;;1.80;99.90;;;;;;5112853;28;20475;-70
2024/01/31 01:39:32;;;;;;;47.35;27.88;;;1.80;99.90;;;;;;5112539;28;20032;-70
2024/01/31 01:41:57;;;;;;;41.83;26.83;;;1.80;99.90;;;;;;5112877;28;20050;-70
2024/01/31 01:44:23;;;;;;;47.95;27.42;;;1.80;99.90;;;;;;5097139;28;20039;-71
2024/01/31 01:46:50;;;;;;;45.83;27.23;;;1.80;99.90;;;;;;5092181;28;20389;-70
2024/01/31 01:49:16;;;;;;;48.03;27.73;;;1.70;99.90;;;;;;5091835;28;20457;-69
2024/01/31 01:51:44;;;;;;;45.15;27.17;;;1.80;99.90;;;;;;5092155;28;20369;-70
2024/01/31 01:54:12;;;;;;;42.80;27.10;;;1.80;99.90;;;;;;5090993;28;20024;-71
2024/01/31 01:56:43;;;;;;;47.38;28.15;;;1.80;99.90;;;;;;5092442;28;20023;-70
2024/01/31 01:59:10;;;;;;;49.17;27.27;;;1.80;99.90;;;;;;5091293;28;20020;-70
2024/01/31 02:01:37;;;;;;;47.92;27.48;;;1.80;99.90;;;;;;5090848;28;20120;-70
2024/01/31 02:04:05;;;;;;;49.78;28.20;;;1.70;99.90;;;;;;5090504;28;20376;-70
2024/01/31 02:06:30;;;;;;;48.88;27.95;;;1.70;99.90;;;;;;5091497;28;20048;-71
2024/01/31 02:08:58;;;;;;;49.72;27.58;;;1.70;99.90;;;;;;5092003;28;20024;-69
2024/01/31 02:11:24;;;;;;;47.85;27.70;;;1.70;99.90;;;;;;5085614;28;20081;-70
2024/01/31 02:13:49;;;;;;;45.25;27.60;;;1.70;99.90;;;;;;5091530;28;20024;-70
2024/01/31 02:16:15;;;;;;;53.92;28.40;;;1.70;99.90;;;;;;5093757;28;20159;-71
2024/01/31 02:18:41;;;;;;;53.92;29.80;;;1.70;99.90;;;;;;5091626;28;20024;-71
2024/01/31 02:21:06;;;;;;;56.85;29.55;;;1.70;99.90;;;;;;5091286;28;20051;-70
2024/01/31 02:23:32;;;;;;;50.25;28.83;;;1.70;99.90;;;;;;5091309;28;20035;-71
2024/01/31 02:25:58;;;;;;;47.22;27.63;;;1.70;99.90;;;;;;5090201;28;20016;-70
2024/01/31 02:28:23;;;;;;;51.85;29.58;;;1.60;99.90;;;;;;5089835;28;20361;-70
2024/01/31 02:30:49;;;;;;;54.38;28.98;;;1.60;99.90;;;;;;5091028;28;20032;-69
2024/01/31 02:33:15;;;;;;;51.40;29.33;;;1.60;99.90;;;;;;5091504;28;20027;-70
2024/01/31 02:35:40;;;;;;;47.10;28.83;;;1.60;99.90;;;;;;5091861;28;20419;-70
2024/01/31 02:38:06;;;;;;;53.20;28.17;;;1.60;99.90;;;;;;5092031;28;20052;-71
2024/01/31 02:40:32;;;;;;;48.88;28.33;;;1.50;99.90;;;;;;5095357;28;20032;-70
2024/01/31 02:42:58;;;;;;;50.67;29.02;;;1.50;99.90;;;;;;5095857;28;20384;-70
2024/01/31 02:45:24;;;;;;;47.70;28.40;;;1.50;99.90;;;;;;5095415;28;20028;-70
2024/01/31 02:47:50;;;;;;;50.65;30.38;;;1.50;99.90;;;;;;5095824;28;20024;-70
2024/01/31 02:50:15;;;;;;;52.70;27.85;;;1.50;99.90;;;;;;5095874;28;20024;-70
2024/01/31 02:52:41;;;;;;;55.33;30.00;;;1.50;99.90;;;;;;5095425;28;20055;-70
2024/01/31 02:55:07;;;;;;;44.65;28.45;;;1.50;99.90;;;;;;5095886;28;20048;-70
2024/01/31 02:57:34;;;;;;;46.63;27.33;;;1.50;99.90;;;;;;5095338;28;20032;-70
2024/01/31 03:00:00;;;;;;;44.50;28.02;;;1.50;99.90;;;;;;5095541;28;20488;-70
2024/01/31 03:02:26;;;;;;;49.28;29.55;;;1.50;99.90;;;;;;5095268;28;20086;-71
2024/01/31 03:04:51;;;;;;;48.35;28.77;;;1.50;99.90;;;;;;5095542;28;20055;-69
2024/01/31 03:07:17;;;;;;;47.92;28.13;;;1.50;99.90;;;;;;5095485;28;20056;-71
2024/01/31 03:09:43;;;;;;;46.03;27.80;;;1.50;99.90;;;;;;5093836;28;20036;-70
2024/01/31 03:12:09;;;;;;;41.00;27.20;;;1.50;99.90;;;;;;5095458;28;20036;-70
2024/01/31 03:14:35;;;;;;;44.92;27.70;;;1.40;99.90;;;;;;5093641;28;20161;-69
2024/01/31 03:17:02;;;;;;;47.38;28.00;;;1.40;99.90;;;;;;5094054;28;20104;-71
2024/01/31 03:19:30;;;;;;;41.22;28.10;;;1.40;99.90;;;;;;5094790;28;20028;-69
2024/01/31 03:21:56;;;;;;;50.45;27.95;;;1.40;99.90;;;;;;5094975;28;20031;-71
2024/01/31 03:24:22;;;;;;;50.80;29.25;;;1.40;99.90;;;;;;5094519;28;20028;-71
2024/01/31 03:26:48;;;;;;;49.72;27.80;;;1.30;99.90;;;;;;5095251;28;20107;-71
2024/01/31 03:29:14;;;;;;;47.85;28.83;;;1.30;99.90;;;;;;5094952;28;20054;-69
2024/01/31 03:31:40;;;;;;;46.75;28.40;;;1.30;99.90;;;;;;5094801;28;20053;-70
2024/01/31 03:34:06;;;;;;;45.13;28.15;;;1.20;99.90;;;;;;5094965;28;20107;-70
2024/01/31 03:36:32;;;;;;;52.55;28.65;;;1.20;99.90;;;;;;5094796;28;20063;-69
2024/01/31 03:38:59;;;;;;;54.05;30.77;;;1.20;99.90;;;;;;5095051;28;20097;-69
2024/01/31 03:41:28;;;;;;;46.67;28.83;;;1.20;99.90;;;;;;5094079;28;20460;-70
2024/01/31 03:43:54;;;;;;;52.47;31.50;;;1.10;99.90;;;;;;5094534;28;20435;-69
2024/01/31 03:46:20;;;;;;;49.60;30.25;;;1.10;99.90;;;;;;5093534;28;20031;-70
2024/01/31 03:48:46;;;;;;;45.90;29.13;;;1.10;99.90;;;;;;5094423;28;20031;-69
2024/01/31 03:51:22;;;;;;;46.22;29.02;;;1.10;99.90;;;;;;5093704;28;20028;-70
2024/01/31 03:53:49;;;;;;;48.88;31.08;;;1.10;99.90;;;;;;5094714;28;20057;-70
2024/01/31 03:56:15;;;;;;;52.00;30.58;;;1.10;99.90;;;;;;5094691;28;20056;-70
2024/01/31 03:58:41;;;;;;;49.65;29.52;;;1.10;99.90;;;;;;5093878;28;20032;-69
2024/01/31 04:01:08;;;;;;;49.58;31.15;;;1.10;99.90;;;;;;5094223;28;20063;-70
2024/01/31 04:03:36;;;;;;;55.28;29.35;;;1.10;99.90;;;;;;5093974;28;20028;-71
2024/01/31 04:06:01;;;;;;;51.92;29.77;;;1.10;99.90;;;;;;5094144;28;20028;-70
2024/01/31 04:08:27;;;;;;;51.95;31.63;;;1.10;99.90;;;;;;5094083;28;20357;-70
2024/01/31 04:10:52;;;;;;;48.90;29.20;;;1.20;99.90;;;;;;5094348;28;20068;-70
2024/01/31 04:13:19;;;;;;;52.08;32.00;;;1.20;99.90;;;;;;5094613;28;20024;-70
2024/01/31 04:15:45;;;;;;;51.05;31.42;;;1.20;99.90;;;;;;5093817;28;20036;-70
2024/01/31 04:18:11;;;;;;;52.35;31.17;;;1.20;99.90;;;;;;5105372;28;20028;-70
2024/01/31 04:20:40;;;;;;;53.15;32.03;;;1.20;99.90;;;;;;5114215;28;20038;-70
2024/01/31 04:23:07;;;;;;;58.00;32.85;;;1.20;99.90;;;;;;5114408;28;20036;-70
2024/01/31 04:25:33;;;;;;;56.00;32.40;;;1.10;99.90;;;;;;5112632;28;20493;-70
2024/01/31 04:27:59;;;;;;;54.45;31.33;;;1.20;99.90;;;;;;5114341;28;20024;-70
2024/01/31 04:30:24;;;;;;;55.90;33.70;;;1.10;99.90;;;;;;5114579;28;20020;-70
2024/01/31 04:32:50;;;;;;;53.53;31.23;;;1.20;99.90;;;;;;5113895;28;20389;-70
2024/01/31 04:35:16;;;;;;;54.90;32.47;;;1.20;99.90;;;;;;5114152;28;20031;-70
2024/01/31 04:37:41;;;;;;;57.17;32.10;;;1.20;99.90;;;;;;5113568;28;20028;-70
2024/01/31 04:40:08;;;;;;;55.92;33.33;;;1.20;99.90;;;;;;5114195;28;20520;-69
2024/01/31 04:42:34;;;;;;;51.40;31.48;;;1.20;99.90;;;;;;5113274;28;20114;-69
2024/01/31 04:45:00;;;;;;;59.58;34.60;;;1.10;99.90;;;;;;5113730;28;20055;-70
2024/01/31 04:47:25;;;;;;;55.80;32.47;;;1.20;99.90;;;;;;5114218;28;20027;-70
2024/01/31 04:49:52;;;;;;;54.20;33.20;;;1.10;99.90;;;;;;5113459;28;20024;-70
2024/01/31 04:52:18;;;;;;;54.53;31.83;;;1.10;99.90;;;;;;5113875;28;20035;-71
2024/01/31 04:54:43;;;;;;;51.92;33.03;;;1.10;99.90;;;;;;5113491;28;20345;-70
2024/01/31 04:57:09;;;;;;;53.33;31.17;;;1.10;99.90;;;;;;5113716;28;20032;-70
2024/01/31 04:59:39;;;;;;;54.85;32.97;;;1.10;99.90;;;;;;5112989;28;20380;-71
2024/01/31 05:02:06;;;;;;;54.38;33.13;;;1.10;99.90;;;;;;5113448;28;20051;-70
2024/01/31 05:04:32;;;;;;;49.65;30.83;;;1.10;99.90;;;;;;5113192;28;20138;-70
2024/01/31 05:06:57;;;;;;;56.03;32.22;;;1.10;99.90;;;;;;5113653;28;20020;-70
2024/01/31 05:09:23;;;;;;;60.75;32.42;;;1.10;99.90;;;;;;5113876;28;20115;-71
2024/01/31 05:11:49;;;;;;;51.03;31.40;;;1.10;99.90;;;;;;5111255;28;20084;-70
2024/01/31 05:14:14;;;;;;;55.42;30.50;;;1.00;99.90;;;;;;5092661;28;20020;-70
2024/01/31 05:16:42;;;;;;;52.33;31.00;;;1.10;99.90;;;;;;5090729;28;20026;-71
2024/01/31 05:19:14;;;;;;;56.15;32.13;;;1.10;99.90;;;;;;5091241;28;20031;-70
2024/01/31 05:21:52;;;;;;;53.55;32.38;;;1.00;99.90;;;;;;5092147;28;20063;-70
2024/01/31 05:24:18;;;;;;;52.42;30.30;;;1.00;99.90;;;;;;5091233;28;20471;-70
2024/01/31 05:26:46;;;;;;;55.38;30.42;;;1.10;99.90;;;;;;5092380;28;20025;-69
2024/01/31 05:29:12;;;;;;;57.30;32.28;;;1.10;99.90;;;;;;5092777;28;20093;-70
2024/01/31 05:31:37;;;;;;;55.55;32.30;;;1.10;99.90;;;;;;5090866;28;20024;-71
2024/01/31 05:34:03;;;;;;;58.72;33.42;;;1.00;99.90;;;;;;5092670;28;20070;-69
2024/01/31 05:36:29;;;;;;;50.60;31.60;;;1.00;99.90;;;;;;5091345;28;20051;-70
2024/01/31 05:38:55;;;;;;;58.05;33.08;;;1.10;99.90;;;;;;5091533;28;20081;-70
2024/01/31 05:41:21;;;;;;;57.53;32.17;;;1.10;99.90;;;;;;5090713;28;20047;-71
2024/01/31 05:43:46;;;;;;;54.50;30.50;;;1.10;99.90;;;;;;5092130;28;20060;-71
2024/01/31 05:46:18;;;;;;;53.40;31.90;;;1.10;99.90;;;;;;5092147;28;20529;-70
2024/01/31 05:48:47;;;;;;;53.92;32.40;;;1.10;99.90;;;;;;5092210;28;20421;-70
2024/01/31 05:51:14;;;;;;;56.28;31.50;;;1.10;99.90;;;;;;5092439;28;20032;-70
2024/01/31 05:53:40;;;;;;;56.60;32.40;;;1.10;99.90;;;;;;5090373;28;20036;-71
2024/01/31 05:56:06;;;;;;;56.35;31.35;;;1.10;99.90;;;;;;5094986;28;20480;-70
2024/01/31 05:58:31;;;;;;;55.40;32.05;;;1.10;99.90;;;;;;5096687;28;20028;-70
2024/01/31 06:00:57;;;;;;;56.60;34.20;;;1.10;99.90;;;;;;5094962;28;20027;-71
2024/01/31 06:03:24;;;;;;;54.10;32.33;;;1.10;99.90;;;;;;5096096;28;20103;-71
2024/01/31 06:05:51;;;;;;;53.10;32.97;;;1.10;99.90;;;;;;5099796;28;20385;-71
2024/01/31 06:08:18;;;;;;;52.42;31.45;;;1.10;99.90;;;;;;5094582;28;20028;-70
2024/01/31 06:10:44;;;;;;;51.80;31.70;;;1.10;99.90;;;;;;5091250;28;20035;-71
2024/01/31 06:13:09;;;;;;;51.67;31.75;;;1.10;99.90;;;;;;5090877;28;20449;-71
2024/01/31 06:15:35;;;;;;;52.25;31.65;;;1.10;99.90;;;;;;5089903;28;20032;-72
2024/01/31 06:18:00;;;;;;;50.95;30.27;;;1.10;99.90;;;;;;5091701;28;20423;-71
2024/01/31 06:20:26;;;;;;;44.03;29.17;;;1.20;99.90;;;;;;5089394;28;20099;-70
2024/01/31 06:22:52;;;;;;;49.80;30.95;;;1.20;99.90;;;;;;5088487;28;20372;-71
2024/01/31 06:25:18;;;;;;;46.13;29.05;;;1.20;99.90;;;;;;5090801;28;20448;-71
2024/01/31 06:27:43;;;;;;;50.47;29.20;;;1.20;99.90;;;;;;5090122;28;20024;-71
2024/01/31 06:30:19;;;;;;;51.92;30.00;;;1.20;99.90;;;;;;5091773;28;20480;-71
2024/01/31 06:32:47;;;;;;;49.00;30.02;;;1.20;99.90;;;;;;5091178;28;20149;-71
2024/01/31 06:35:13;;;;;;;51.22;30.38;;;1.30;99.90;;;;;;5091894;28;20031;-71
2024/01/31 06:37:39;;;;;;;48.95;29.08;;;1.30;99.90;;;;;;5091334;28;20029;-71
2024/01/31 06:40:06;;;;;;;48.47;30.23;;;1.30;99.90;;;;;;5091266;28;20382;-71
2024/01/31 06:42:31;;;;;;;50.63;29.80;;;1.30;99.90;;;;;;5091612;28;20393;-73
2024/01/31 06:44:57;;;;;;;46.70;29.02;;;1.30;99.90;;;;;;5091003;28;20028;-71
2024/01/31 06:47:23;;;;;;;47.85;29.23;;;1.30;99.90;;;;;;5091436;28;20031;-71
2024/01/31 06:49:48;;;;;;;53.75;32.53;;;1.30;99.90;;;;;;5090725;28;20020;-71
2024/01/31 06:52:14;;;;;;;56.25;31.75;;;1.30;99.90;;;;;;5092197;28;20059;-71
2024/01/31 06:54:40;;;;;;;50.22;29.48;;;1.30;99.90;;;;;;5094541;28;20024;-72
2024/01/31 06:57:05;;;;;;;50.63;30.33;;;1.30;99.90;;;;;;5096171;28;20493;-71
2024/01/31 06:59:31;;;;;;;51.17;30.52;;;1.30;99.90;;;;;;5102177;28;20024;-71
2024/01/31 07:01:56;;;;;;;48.53;30.30;;;1.30;99.90;;;;;;5097110;28;20044;-71
2024/01/31 07:04:22;;;;;;;56.30;30.95;;;1.30;99.90;;;;;;5099542;28;20020;-70
2024/01/31 07:06:48;;;;;;;52.20;30.00;;;1.30;99.90;;;;;;5096010;28;20031;-71
2024/01/31 07:09:13;;;;;;;50.25;31.02;;;1.30;99.90;;;;;;5096619;28;20024;-71
2024/01/31 07:11:39;;;;;;;50.65;29.25;;;1.30;99.90;;;;;;5100447;28;20031;-70
2024/01/31 07:14:04;;;;;;;50.38;29.95;;;1.30;99.90;;;;;;5099178;28;20032;-69
2024/01/31 07:16:30;;;;;;;56.17;31.48;;;1.30;99.90;;;;;;5096899;28;20111;-71
2024/01/31 07:18:56;;;;;;;49.85;30.30;;;1.30;99.90;;;;;;5101680;28;20094;-71
2024/01/31 07:21:25;;;;;;;48.85;29.75;;;1.30;99.90;;;;;;5101006;28;20040;-72
2024/01/31 07:23:52;;;;;;;55.67;31.17;;;1.30;99.90;;;;;;5098516;28;20103;-72
2024/01/31 07:26:26;;;;;;;53.22;30.13;;;1.30;99.90;;;;;;5104392;28;20017;-72
2024/01/31 07:28:52;;;;;;;51.30;30.63;;;1.40;99.90;;;;;;5103477;28;20031;-72
2024/01/31 07:31:17;;;;;;;51.33;31.67;;;1.40;99.90;;;;;;5098161;28;20020;-72
2024/01/31 07:33:43;;;;;;;50.25;30.17;;;1.40;99.90;;;;;;5097604;28;20031;-73
2024/01/31 07:36:09;;;;;;;50.88;31.25;;;1.50;99.90;;;;;;5103678;28;20051;-73
2024/01/31 07:38:34;;;;;;;55.30;31.42;;;1.40;99.90;;;;;;5101655;28;20024;-73
2024/01/31 07:41:00;;;;;;;51.47;31.52;;;1.50;99.90;;;;;;5099524;28;20074;-73
2024/01/31 07:43:26;;;;;;;47.83;31.15;;;1.50;99.90;;;;;;5105092;28;20036;-74
2024/01/31 07:45:52;;;;;;;49.85;30.63;;;1.60;99.90;;;;;;5101909;28;20039;-73
2024/01/31 07:48:19;;;;;;;51.20;30.80;;;1.60;99.90;;;;;;5094535;28;20024;-73
2024/01/31 07:50:45;;;;;;;46.83;30.52;;;1.70;99.90;;;;;;5099511;28;20027;-74
2024/01/31 07:53:11;;;;;;;49.33;29.85;;;1.70;99.90;;;;;;5110437;28;20034;-73
2024/01/31 07:55:36;;;;;;;51.00;31.75;;;1.80;99.90;;;;;;5103212;28;20020;-76
2024/01/31 07:58:03;;;;;;;50.03;31.02;;;1.80;99.90;;;;;;5104125;28;20487;-74
2024/01/31 08:00:28;;;;;;;55.22;32.05;;;1.90;99.90;;;;;;5099796;28;20031;-73
2024/01/31 08:02:54;;;;;;;48.33;29.35;;;2.10;99.90;;;;;;5097546;28;20540;-72
2024/01/31 08:05:19;;;;;;;54.03;30.15;;;2.30;99.90;;;;;;5097430;28;20123;-73
2024/01/31 08:07:45;;;;;;;48.05;30.13;;;2.50;99.90;;;;;;5097197;28;20024;-72
2024/01/31 08:10:12;;;;;;;44.28;27.73;;;2.60;99.90;;;;;;5093174;28;20039;-74
2024/01/31 08:12:39;;;;;;;44.30;27.67;;;2.70;99.90;;;;;;5093545;28;20321;-79
2024/01/31 08:15:05;;;;;;;46.38;29.52;;;2.80;99.90;;;;;;5093222;28;20052;-74
2024/01/31 08:17:30;;;;;;;43.40;27.60;;;2.90;99.90;;;;;;5092555;28;20381;-74
2024/01/31 08:19:56;;;;;;;41.28;27.30;;;2.90;99.90;;;;;;5092536;28;20073;-73
2024/01/31 08:22:23;;;;;;;41.90;28.02;;;3.00;99.90;;;;;;5092205;28;20047;-73
2024/01/31 08:24:49;;;;;;;43.55;28.20;;;3.00;99.90;;;;;;5093441;28;20465;-73
2024/01/31 08:27:17;;;;;;;43.67;26.80;;;3.00;99.90;;;;;;5094057;28;20028;-73
2024/01/31 08:29:44;;;;;;;41.80;26.27;;;3.10;99.90;;;;;;5093168;28;20107;-73
2024/01/31 08:32:09;;;;;;;45.45;27.75;;;3.10;99.90;;;;;;5095261;28;20039;-73
2024/01/31 08:34:35;;;;;;;42.63;26.80;;;3.10;99.90;;;;;;5114206;28;20042;-74
2024/01/31 08:37:01;;;;;;;48.50;29.02;;;3.10;99.90;;;;;;5113155;28;20024;-73
2024/01/31 08:39:29;;;;;;;46.85;28.90;;;3.10;99.90;;;;;;5113499;28;20369;-73
2024/01/31 08:41:55;;;;;;;47.13;28.50;;;3.00;99.90;;;;;;5113505;28;20036;-72
2024/01/31 08:44:21;;;;;;;45.30;27.92;;;2.90;99.90;;;;;;5113804;28;20059;-73
2024/01/31 08:46:47;;;;;;;44.40;27.63;;;2.90;99.90;;;;;;5113703;28;20105;-73
2024/01/31 08:49:12;;;;;;;49.15;27.60;;;2.90;99.90;;;;;;5113647;28;20383;-73
2024/01/31 08:51:38;;;;;;;45.53;27.50;;;2.80;99.90;;;;;;5112393;28;20429;-72
2024/01/31 08:54:08;;;;;;;43.92;28.63;;;2.80;99.90;;;;;;5113575;28;20047;-72
2024/01/31 08:56:34;;;;;;;52.47;30.63;;;2.80;99.90;;;;;;5113660;28;20103;-73
2024/01/31 08:59:00;;;;;;;49.78;29.27;;;2.80;99.90;;;;;;5111978;28;20114;-73
2024/01/31 09:01:25;;;;;;;47.78;30.73;;;2.80;99.90;;;;;;5113220;28;20142;-74
2024/01/31 09:03:51;;;;;;;53.80;30.40;;;2.80;99.90;;;;;;5112882;28;20023;-73
2024/01/31 09:06:17;;;;;;;55.22;31.77;;;2.80;99.90;;;;;;5113488;28;20062;-74
2024/01/31 09:08:43;;;;;;;54.85;32.78;;;2.80;99.90;;;;;;5113260;28;20440;-73
2024/01/31 09:11:09;;;;;;;46.35;30.40;;;2.90;99.90;;;;;;5113288;28;20039;-73
2024/01/31 09:13:35;;;;;;;48.88;30.15;;;2.90;99.90;;;;;;5111882;28;20034;-73
2024/01/31 09:16:01;;;;;;;50.13;32.33;;;3.00;99.90;;;;;;5112874;28;20445;-73
2024/01/31 09:18:28;;;;;;;49.25;30.83;;;3.10;99.90;;;;;;5113305;28;20055;-73
2024/01/31 09:20:54;;;;;;;50.50;30.80;;;3.10;99.90;;;;;;5112591;28;20380;-73
2024/01/31 09:23:19;;;;;;;47.50;29.92;;;3.20;99.90;;;;;;5112815;28;20034;-73
2024/01/31 09:25:45;;;;;;;50.38;30.70;;;3.30;99.90;;;;;;5112355;28;20027;-72
2024/01/31 09:28:10;;;;;;;51.40;31.58;;;3.30;99.90;;;;;;5111688;28;20072;-73
2024/01/31 09:30:36;;;;;;;48.47;29.38;;;3.40;99.90;;;;;;5103507;28;20081;-74
2024/01/31 09:33:02;;;;;;;53.97;31.13;;;3.50;99.90;;;;;;5091945;28;20066;-73
2024/01/31 09:35:28;;;;;;;50.35;30.88;;;3.60;99.90;;;;;;5092281;28;20031;-72
2024/01/31 09:37:54;;;;;;;56.05;34.08;;;3.70;99.90;;;;;;5092097;28;20135;-74
2024/01/31 09:40:22;;;;;;;46.63;31.17;;;3.80;99.90;;;;;;5092343;28;20024;-73
2024/01/31 09:42:51;;;;;;;46.45;30.23;;;3.90;99.90;;;;;;5091806;28;20046;-73
2024/01/31 09:45:17;;;;;;;52.25;31.48;;;4.10;99.90;;;;;;5091007;28;20043;-73
2024/01/31 09:47:45;;;;;;;51.22;31.67;;;4.20;99.90;;;;;;5090022;28;20080;-73
2024/01/31 09:50:11;;;;;;;51.65;30.77;;;4.40;99.90;;;;;;5091984;28;20020;-73
2024/01/31 09:52:39;;;;;;;45.63;30.25;;;4.50;99.90;;;;;;5092190;28;20433;-73
2024/01/31 09:55:09;;;;;;;47.53;30.13;;;4.70;99.90;;;;;;5090224;28;20028;-73
2024/01/31 09:57:35;;;;;;;49.53;30.30;;;4.90;99.90;;;;;;5090822;28;20494;-74
2024/01/31 10:00:05;;;;;;;46.58;29.73;;;5.00;99.00;;;;;;5091848;28;20396;-73
2024/01/31 10:02:31;;;;;;;48.53;29.33;;;5.00;97.90;;;;;;5091344;28;20499;-73
2024/01/31 10:04:57;;;;;;;47.00;29.25;;;5.10;97.70;;;;;;5091614;28;20024;-73
2024/01/31 10:07:24;;;;;;;48.80;30.02;;;5.30;97.70;;;;;;5091956;28;20124;-72
2024/01/31 10:09:53;;;;;;;46.10;29.35;;;5.30;97.40;;;;;;5091045;28;20020;-74
2024/01/31 10:12:20;;;;;;;55.17;29.60;;;5.50;97.20;;;;;;5089363;28;20028;-72
2024/01/31 10:14:48;;;;;;;49.00;29.85;;;5.60;96.30;;;;;;5091503;28;20024;-74
2024/01/31 10:17:14;;;;;;;47.47;29.85;;;5.70;95.80;;;;;;5091827;28;20111;-73
2024/01/31 10:19:40;;;;;;;50.97;29.30;;;5.90;95.70;;;;;;5091989;28;20024;-73
2024/01/31 10:22:06;;;;;;;52.67;31.10;;;6.00;95.70;;;;;;5091528;28;20043;-74
2024/01/31 10:24:32;;;;;;;48.30;29.65;;;6.10;95.50;;;;;;5093174;28;20020;-73
2024/01/31 10:26:58;;;;;;;45.97;28.13;;;6.20;94.70;;;;;;5111245;28;20440;-72
2024/01/31 10:29:24;;;;;;;45.50;28.20;;;6.40;93.70;;;;;;5112295;28;20055;-72
2024/01/31 10:31:52;;;;;;;45.95;29.20;;;6.40;93.40;;;;;;5110529;28;20036;-73
2024/01/31 10:34:18;;;;;;;39.92;28.45;;;6.50;93.60;;;;;;5112231;28;20028;-73
2024/01/31 10:36:45;;;;;;;47.80;28.20;;;6.60;93.50;;;;;;5111754;28;20163;-74
2024/01/31 10:39:13;;;;;;;44.45;28.92;;;6.60;92.90;;;;;;5110871;28;20052;-73
2024/01/31 10:41:42;;;;;;;43.90;28.58;;;6.70;92.60;;;;;;5112028;28;20136;-73
2024/01/31 10:44:13;;;;;;;44.40;29.25;;;6.90;92.70;;;;;;5112039;28;20192;-74
2024/01/31 10:46:39;;;;;;;44.13;28.73;;;7.00;92.30;;;;;;5112372;28;20015;-73
2024/01/31 10:49:05;;;;;;;41.90;26.77;;;7.10;91.80;;;;;;5111411;28;20774;-73
2024/01/31 10:51:33;;;;;;;43.85;28.15;;;7.20;91.10;;;;;;5112555;28;20031;-72
2024/01/31 10:54:01;;;;;;;45.05;28.83;;;7.20;91.00;;;;;;5111507;28;20027;-74
2024/01/31 10:56:27;;;;;;;51.53;28.55;;;7.30;90.80;;;;;;5111786;28;20117;-73
2024/01/31 10:58:56;;;;;;;46.72;28.15;;;7.40;90.60;;;;;;5111518;28;20077;-73
2024/01/31 11:01:27;;;;;;;47.05;28.13;;;7.50;90.60;;;;;;5115536;28;20052;-73
2024/01/31 11:03:53;;;;;;;45.95;28.40;;;7.60;89.40;;;;;;5115663;28;20028;-74
2024/01/31 11:06:19;;;;;;;42.80;28.70;;;7.70;88.90;;;;;;5115526;28;20024;-74
2024/01/31 11:08:47;;;;;;;47.72;29.90;;;7.80;87.90;;;;;;5115736;28;20023;-74
2024/01/31 11:11:13;;;;;;;47.53;29.05;;;7.80;86.20;;;;;;5115696;28;20131;-73
2024/01/31 11:13:38;;;;;;;42.97;28.30;;;7.80;85.20;;;;;;5115618;28;20024;-73
2024/01/31 11:16:05;;;;;;;44.05;28.08;;;8.00;85.80;;;;;;5115295;28;20036;-73
2024/01/31 11:18:31;;;;;;;44.90;28.88;;;8.00;85.90;;;;;;5115763;28;20368;-73
2024/01/31 11:20:58;;;;;;;45.17;28.75;;;8.00;84.80;;;;;;5115095;28;20091;-73
2024/01/31 11:23:28;;;;;;;40.13;27.55;;;8.10;83.90;;;;;;5115921;28;20364;-73
2024/01/31 11:25:54;;;;;;;47.67;29.58;;;8.10;84.10;;;;;;5114981;28;20099;-74
2024/01/31 11:28:22;;;;;;;42.70;28.30;;;8.00;83.80;;;;;;5115436;28;20402;-74
2024/01/31 11:30:54;;;;;;;44.65;28.23;;;8.00;83.20;;;;;;5115006;28;20027;-76
2024/01/31 11:33:21;;;;;;;45.92;28.52;;;7.90;83.40;;;;;;5115315;28;20030;-73
2024/01/31 11:35:46;;;;;;;50.38;29.50;;;7.90;83.30;;;;;;5113900;28;20023;-73
2024/01/31 11:38:13;;;;;;;45.65;30.10;;;7.90;83.70;;;;;;5115171;28;20038;-73
2024/01/31 11:40:39;;;;;;;49.45;30.08;;;7.80;83.40;;;;;;5095847;28;20367;-73
2024/01/31 11:43:05;;;;;;;51.55;30.67;;;7.80;82.70;;;;;;5094351;28;20099;-73
2024/01/31 11:45:31;;;;;;;48.85;31.08;;;7.70;82.60;;;;;;5094968;28;20028;-73
2024/01/31 11:47:58;;;;;;;59.17;31.80;;;7.60;82.90;;;;;;5094528;28;20024;-73
2024/01/31 11:50:25;;;;;;;47.13;30.92;;;7.60;82.80;;;;;;5094498;28;20099;-73
2024/01/31 11:52:51;;;;;;;53.80;32.60;;;7.60;83.50;;;;;;5094419;28;20043;-73
2024/01/31 11:55:22;;;;;;;50.90;31.15;;;7.60;83.90;;;;;;5094068;28;20019;-73
2024/01/31 11:57:47;;;;;;;47.63;29.88;;;7.60;83.00;;;;;;5094376;28;20051;-73
2024/01/31 12:00:14;;;;;;;57.15;32.55;;;7.50;82.60;;;;;;5092194;28;20432;-72
2024/01/31 12:02:40;;;;;;;48.50;30.15;;;7.40;82.50;;;;;;5093773;28;20423;-73
2024/01/31 12:05:07;;;;;;;52.80;29.98;;;7.40;84.00;;;;;;5093434;28;20101;-73
2024/01/31 12:07:34;;;;;;;52.55;31.42;;;7.40;83.90;;;;;;5094409;28;20089;-73
2024/01/31 12:10:00;;;;;;;51.05;31.25;;;7.40;83.90;;;;;;5093856;28;20024;-74
2024/01/31 12:12:26;;;;;;;58.80;32.97;;;7.50;84.20;;;;;;5092988;28;20444;-73
2024/01/31 12:14:53;;;;;;;50.55;32.17;;;7.50;84.20;;;;;;5093444;28;20434;-73
2024/01/31 12:17:23;;;;;;;48.63;30.42;;;7.50;84.30;;;;;;5094413;28;20101;-73
2024/01/31 12:19:50;;;;;;;53.85;32.50;;;7.60;84.60;;;;;;5094019;28;20051;-74
2024/01/31 12:22:17;;;;;;;48.28;30.90;;;7.60;83.90;;;;;;5093422;28;20039;-72
2024/01/31 12:24:43;;;;;;;49.55;30.73;;;7.60;84.10;;;;;;5094039;28;20122;-74
2024/01/31 12:27:08;;;;;;;49.63;29.35;;;7.70;83.70;;;;;;5093563;28;20028;-74
2024/01/31 12:29:34;;;;;;;51.05;29.98;;;7.70;83.30;;;;;;5093895;28;20123;-73
2024/01/31 12:31:59;;;;;;;50.85;31.05;;;7.80;84.10;;;;;;5093475;28;20028;-72